sensor_id;sensor_type;location;lat;lon;timestamp;pressure;altitude;pressure_sealevel;temperature;humidity
11347;BME280;5728;42.722;23.258;2023-03-23T00:01:24;94739.44;;;5.25;100.00
11347;BME280;5728;42.722;23.258;2023-03-23T00:03:57;94736.91;;;5.40;100.00
11347;BME280;5728;42.722;23.258;2023-03-23T00:06:27;94736.84;;;5.20;100.00
11347;BME280;5728;42.722;23.258;2023-03-23T00:08:58;94730.81;;;5.16;100.00
11347;BME280;5728;42.722;23.258;2023-03-23T00:11:29;94730.88;;;5.26;100.00
11347;BME280;5728;42.722;23.258;2023-03-23T00:13:58;94720.59;;;5.27;100.00
11347;BME280;5728;42.722;23.258;2023-03-23T00:16:27;94727.41;;;5.24;100.00
11347;BME280;5728;42.722;23.258;2023-03-23T00:18:57;94731.75;;;5.32;100.00
11347;BME280;5728;42.722;23.258;2023-03-23T00:21:27;94732.66;;;5.49;100.00
11347;BME280;5728;42.722;23.258;2023-03-23T00:24:01;94739.53;;;5.56;100.00
11347;BME280;5728;42.722;23.258;2023-03-23T00:26:28;94736.16;;;5.63;100.00
11347;BME280;5728;42.722;23.258;2023-03-23T00:28:59;94750.75;;;5.84;100.00
11347;BME280;5728;42.722;23.258;2023-03-23T00:31:26;94736.25;;;6.09;100.00
11347;BME280;5728;42.722;23.258;2023-03-23T00:33:57;94734.56;;;6.29;100.00
11347;BME280;5728;42.722;23.258;2023-03-23T00:36:28;94735.41;;;6.43;100.00
11347;BME280;5728;42.722;23.258;2023-03-23T00:38:55;94743.97;;;6.57;100.00
11347;BME280;5728;42.722;23.258;2023-03-23T00:41:25;94737.09;;;6.68;100.00
11347;BME280;5728;42.722;23.258;2023-03-23T00:43:54;94748.25;;;6.72;100.00
11347;BME280;5728;42.722;23.258;2023-03-23T00:46:20;94739.69;;;6.67;100.00
11347;BME280;5728;42.722;23.258;2023-03-23T00:48:48;94739.66;;;6.79;100.00
11347;BME280;5728;42.722;23.258;2023-03-23T00:51:16;94748.22;;;6.85;100.00
11347;BME280;5728;42.722;23.258;2023-03-23T00:53:45;94748.22;;;6.94;100.00
11347;BME280;5728;42.722;23.258;2023-03-23T00:56:12;94749.91;;;6.98;100.00
11347;BME280;5728;42.722;23.258;2023-03-23T00:58:39;94755.94;;;6.99;100.00
11347;BME280;5728;42.722;23.258;2023-03-23T01:01:06;94746.53;;;6.84;100.00
11347;BME280;5728;42.722;23.258;2023-03-23T01:03:33;94765.41;;;6.80;100.00
11347;BME280;5728;42.722;23.258;2023-03-23T01:06:05;94751.69;;;6.78;100.00
11347;BME280;5728;42.722;23.258;2023-03-23T01:08:33;94761.16;;;6.51;100.00
11347;BME280;5728;42.722;23.258;2023-03-23T01:11:04;94760.28;;;6.62;100.00
11347;BME280;5728;42.722;23.258;2023-03-23T01:13:32;94772.31;;;6.51;100.00
11347;BME280;5728;42.722;23.258;2023-03-23T01:15:59;94769.72;;;6.40;100.00
11347;BME280;5728;42.722;23.258;2023-03-23T01:18:26;94752.53;;;6.05;100.00
11347;BME280;5728;42.722;23.258;2023-03-23T01:20:53;94757.69;;;6.08;100.00
11347;BME280;5728;42.722;23.258;2023-03-23T01:23:19;94801.25;;;5.59;100.00
11347;BME280;5728;42.722;23.258;2023-03-23T01:25:46;94763.44;;;5.25;100.00
11347;BME280;5728;42.722;23.258;2023-03-23T01:28:15;94756.63;;;5.33;100.00
11347;BME280;5728;42.722;23.258;2023-03-23T01:30:42;94757.44;;;5.34;100.00
11347;BME280;5728;42.722;23.258;2023-03-23T01:33:08;94746.31;;;5.30;100.00
11347;BME280;5728;42.722;23.258;2023-03-23T01:35:37;94771.09;;;5.19;100.00
11347;BME280;5728;42.722;23.258;2023-03-23T01:38:04;94749.75;;;5.37;100.00
11347;BME280;5728;42.722;23.258;2023-03-23T01:40:31;94746.44;;;5.69;100.00
11347;BME280;5728;42.722;23.258;2023-03-23T01:42:58;94746.34;;;5.39;100.00
11347;BME280;5728;42.722;23.258;2023-03-23T01:45:31;94736.91;;;5.31;100.00
11347;BME280;5728;42.722;23.258;2023-03-23T01:48:05;94746.28;;;5.24;100.00
11347;BME280;5728;42.722;23.258;2023-03-23T01:50:37;94746.25;;;5.21;100.00
11347;BME280;5728;42.722;23.258;2023-03-23T01:53:08;94717.88;;;4.97;100.00
11347;BME280;5728;42.722;23.258;2023-03-23T01:55:37;94740.19;;;5.01;100.00
11347;BME280;5728;42.722;23.258;2023-03-23T01:58:06;94741.00;;;4.97;100.00
11347;BME280;5728;42.722;23.258;2023-03-23T02:00:36;94734.16;;;4.96;100.00
11347;BME280;5728;42.722;23.258;2023-03-23T02:03:06;94732.38;;;4.84;100.00
11347;BME280;5728;42.722;23.258;2023-03-23T02:05:38;94734.16;;;4.93;100.00
11347;BME280;5728;42.722;23.258;2023-03-23T02:08:06;94737.56;;;4.96;100.00
11347;BME280;5728;42.722;23.258;2023-03-23T02:10:35;94753.03;;;5.04;100.00
11347;BME280;5728;42.722;23.258;2023-03-23T02:13:03;94732.59;;;5.28;100.00
11347;BME280;5728;42.722;23.258;2023-03-23T02:15:41;94737.84;;;5.67;100.00
11347;BME280;5728;42.722;23.258;2023-03-23T02:18:17;94731.06;;;5.88;100.00
11347;BME280;5728;42.722;23.258;2023-03-23T02:24:17;94737.13;;;6.18;100.00
11347;BME280;5728;42.722;23.258;2023-03-23T02:26:53;94737.13;;;6.29;100.00
11347;BME280;5728;42.722;23.258;2023-03-23T02:29:29;94736.25;;;6.30;100.00
11347;BME280;5728;42.722;23.258;2023-03-23T02:32:10;94743.09;;;6.44;100.00
11347;BME280;5728;42.722;23.258;2023-03-23T02:34:41;94736.22;;;6.60;100.00
11347;BME280;5728;42.722;23.258;2023-03-23T02:37:11;94768.00;;;6.61;100.00
11347;BME280;5728;42.722;23.258;2023-03-23T02:39:43;94727.63;;;6.67;100.00
11347;BME280;5728;42.722;23.258;2023-03-23T02:42:14;94724.22;;;6.64;100.00
11347;BME280;5728;42.722;23.258;2023-03-23T02:44:45;94734.50;;;6.77;100.00
11347;BME280;5728;42.722;23.258;2023-03-23T02:47:16;94747.38;;;6.79;100.00
11347;BME280;5728;42.722;23.258;2023-03-23T02:49:48;94760.25;;;6.83;100.00
11347;BME280;5728;42.722;23.258;2023-03-23T02:52:19;94747.38;;;6.80;100.00
11347;BME280;5728;42.722;23.258;2023-03-23T02:54:49;94757.69;;;6.83;100.00
11347;BME280;5728;42.722;23.258;2023-03-23T02:57:18;94758.50;;;6.97;100.00
11347;BME280;5728;42.722;23.258;2023-03-23T02:59:45;94756.84;;;6.81;100.00
11347;BME280;5728;42.722;23.258;2023-03-23T03:02:14;94755.97;;;6.87;100.00
11347;BME280;5728;42.722;23.258;2023-03-23T03:04:50;94761.13;;;6.81;100.00
11347;BME280;5728;42.722;23.258;2023-03-23T03:07:43;94757.69;;;6.83;100.00
11347;BME280;5728;42.722;23.258;2023-03-23T03:10:18;94757.69;;;6.77;100.00
11347;BME280;5728;42.722;23.258;2023-03-23T03:12:55;94767.97;;;6.85;100.00
11347;BME280;5728;42.722;23.258;2023-03-23T03:15:26;94776.56;;;6.82;100.00
11347;BME280;5728;42.722;23.258;2023-03-23T03:18:00;94770.56;;;6.88;99.89
11347;BME280;5728;42.722;23.258;2023-03-23T03:20:31;94774.88;;;6.89;99.39
11347;BME280;5728;42.722;23.258;2023-03-23T03:22:59;94774.84;;;6.90;99.14
11347;BME280;5728;42.722;23.258;2023-03-23T03:25:27;94777.44;;;6.75;99.68
11347;BME280;5728;42.722;23.258;2023-03-23T03:27:55;94775.75;;;6.50;100.00
11347;BME280;5728;42.722;23.258;2023-03-23T03:30:26;94777.47;;;6.54;100.00
11347;BME280;5728;42.722;23.258;2023-03-23T03:32:56;94779.16;;;6.67;100.00
11347;BME280;5728;42.722;23.258;2023-03-23T03:35:26;94782.59;;;6.45;100.00
11347;BME280;5728;42.722;23.258;2023-03-23T03:37:54;94783.47;;;6.38;100.00
11347;BME280;5728;42.722;23.258;2023-03-23T03:40:23;94786.03;;;6.38;100.00
11347;BME280;5728;42.722;23.258;2023-03-23T03:42:50;94781.75;;;6.32;100.00
11347;BME280;5728;42.722;23.258;2023-03-23T03:45:19;94790.34;;;6.31;100.00
11347;BME280;5728;42.722;23.258;2023-03-23T03:47:46;94784.34;;;6.46;99.96
11347;BME280;5728;42.722;23.258;2023-03-23T03:50:13;94784.16;;;5.70;100.00
11347;BME280;5728;42.722;23.258;2023-03-23T03:52:42;94779.03;;;5.73;100.00
11347;BME280;5728;42.722;23.258;2023-03-23T03:55:11;94797.84;;;5.57;100.00
11347;BME280;5728;42.722;23.258;2023-03-23T03:57:38;94796.06;;;5.44;100.00
11347;BME280;5728;42.722;23.258;2023-03-23T04:00:06;94797.81;;;5.54;100.00
11347;BME280;5728;42.722;23.258;2023-03-23T04:02:43;94782.53;;;5.88;100.00
11347;BME280;5728;42.722;23.258;2023-03-23T04:05:13;94778.09;;;5.52;100.00
11347;BME280;5728;42.722;23.258;2023-03-23T04:07:40;94775.53;;;5.56;100.00
11347;BME280;5728;42.722;23.258;2023-03-23T04:10:10;94777.28;;;5.66;100.00
11347;BME280;5728;42.722;23.258;2023-03-23T04:12:38;94784.09;;;5.48;100.00
11347;BME280;5728;42.722;23.258;2023-03-23T04:15:07;94786.72;;;5.63;100.00
11347;BME280;5728;42.722;23.258;2023-03-23T04:17:34;94788.44;;;5.71;100.00
11347;BME280;5728;42.722;23.258;2023-03-23T04:20:03;94789.31;;;5.70;100.00
11347;BME280;5728;42.722;23.258;2023-03-23T04:22:41;94786.75;;;5.76;100.00
11347;BME280;5728;42.722;23.258;2023-03-23T04:25:11;94786.84;;;5.95;100.00
11347;BME280;5728;42.722;23.258;2023-03-23T04:27:40;94788.41;;;5.58;100.00
11347;BME280;5728;42.722;23.258;2023-03-23T04:30:10;94784.19;;;5.79;100.00
11347;BME280;5728;42.722;23.258;2023-03-23T04:32:37;94783.34;;;5.76;100.00
11347;BME280;5728;42.722;23.258;2023-03-23T04:35:08;94788.47;;;5.79;100.00
11347;BME280;5728;42.722;23.258;2023-03-23T04:37:37;94791.00;;;5.71;100.00
11347;BME280;5728;42.722;23.258;2023-03-23T04:40:05;94793.69;;;5.88;100.00
11347;BME280;5728;42.722;23.258;2023-03-23T04:42:37;94801.44;;;6.08;100.00
11347;BME280;5728;42.722;23.258;2023-03-23T04:45:06;94792.84;;;5.97;100.00
11347;BME280;5728;42.722;23.258;2023-03-23T04:47:36;94797.16;;;6.05;100.00
11347;BME280;5728;42.722;23.258;2023-03-23T04:50:07;94798.03;;;6.15;100.00
11347;BME280;5728;42.722;23.258;2023-03-23T04:52:34;94806.44;;;5.62;100.00
11347;BME280;5728;42.722;23.258;2023-03-23T04:55:04;94795.78;;;4.90;100.00
11347;BME280;5728;42.722;23.258;2023-03-23T04:57:30;94795.75;;;4.87;100.00
11347;BME280;5728;42.722;23.258;2023-03-23T04:59:59;94802.81;;;5.18;100.00
11347;BME280;5728;42.722;23.258;2023-03-23T05:02:26;94804.41;;;4.98;100.00
11347;BME280;5728;42.722;23.258;2023-03-23T05:04:55;94810.53;;;5.24;100.00
11347;BME280;5728;42.722;23.258;2023-03-23T05:07:22;94825.22;;;5.46;100.00
11347;BME280;5728;42.722;23.258;2023-03-23T05:09:49;94815.88;;;5.68;100.00
11347;BME280;5728;42.722;23.258;2023-03-23T05:12:16;94825.31;;;5.67;100.00
11347;BME280;5728;42.722;23.258;2023-03-23T05:14:43;94831.31;;;5.74;100.00
11347;BME280;5728;42.722;23.258;2023-03-23T05:17:11;94815.75;;;5.38;100.00
11347;BME280;5728;42.722;23.258;2023-03-23T05:19:44;94824.19;;;5.18;100.00
11347;BME280;5728;42.722;23.258;2023-03-23T05:22:13;94828.63;;;5.42;100.00
11347;BME280;5728;42.722;23.258;2023-03-23T05:24:40;94823.25;;;5.00;100.00
11347;BME280;5728;42.722;23.258;2023-03-23T05:27:08;94823.31;;;5.06;100.00
11347;BME280;5728;42.722;23.258;2023-03-23T05:29:35;94832.97;;;5.57;100.00
11347;BME280;5728;42.722;23.258;2023-03-23T05:32:02;94815.78;;;5.42;100.00
11347;BME280;5728;42.722;23.258;2023-03-23T05:34:32;94820.78;;;5.13;100.00
11347;BME280;5728;42.722;23.258;2023-03-23T05:36:58;94835.53;;;5.57;100.00
11347;BME280;5728;42.722;23.258;2023-03-23T05:39:26;94839.91;;;5.68;100.00
11347;BME280;5728;42.722;23.258;2023-03-23T05:41:53;94838.28;;;5.89;100.00
11347;BME280;5728;42.722;23.258;2023-03-23T05:44:20;94845.13;;;5.90;100.00
11347;BME280;5728;42.722;23.258;2023-03-23T05:46:47;94837.41;;;5.87;100.00
11347;BME280;5728;42.722;23.258;2023-03-23T05:49:14;94844.31;;;5.94;100.00
11347;BME280;5728;42.722;23.258;2023-03-23T05:51:44;94859.78;;;6.04;100.00
11347;BME280;5728;42.722;23.258;2023-03-23T05:54:11;94849.56;;;6.33;100.00
11347;BME280;5728;42.722;23.258;2023-03-23T05:56:39;94856.34;;;6.07;100.00
11347;BME280;5728;42.722;23.258;2023-03-23T05:59:06;94853.81;;;6.20;100.00
11347;BME280;5728;42.722;23.258;2023-03-23T06:01:33;94857.19;;;6.00;100.00
11347;BME280;5728;42.722;23.258;2023-03-23T06:04:00;94846.91;;;6.04;100.00
11347;BME280;5728;42.722;23.258;2023-03-23T06:06:27;94851.22;;;6.22;100.00
11347;BME280;5728;42.722;23.258;2023-03-23T06:08:56;94855.56;;;6.38;100.00
11347;BME280;5728;42.722;23.258;2023-03-23T06:11:23;94860.69;;;6.32;100.00
11347;BME280;5728;42.722;23.258;2023-03-23T06:13:51;94845.31;;;6.76;100.00
11347;BME280;5728;42.722;23.258;2023-03-23T06:16:18;94848.72;;;6.75;100.00
11347;BME280;5728;42.722;23.258;2023-03-23T06:18:45;94848.69;;;7.26;100.00
11347;BME280;5728;42.722;23.258;2023-03-23T06:21:13;94842.56;;;7.77;100.00
11347;BME280;5728;42.722;23.258;2023-03-23T06:23:40;94849.25;;;8.17;100.00
11347;BME280;5728;42.722;23.258;2023-03-23T06:26:10;94845.75;;;8.24;98.07
11347;BME280;5728;42.722;23.258;2023-03-23T06:28:40;94838.91;;;8.26;99.14
11347;BME280;5728;42.722;23.258;2023-03-23T06:31:07;94839.59;;;8.56;98.62
11347;BME280;5728;42.722;23.258;2023-03-23T06:33:34;94852.47;;;8.59;98.65
11347;BME280;5728;42.722;23.258;2023-03-23T06:36:01;94839.41;;;8.80;98.68
11347;BME280;5728;42.722;23.258;2023-03-23T06:38:28;94850.28;;;9.17;97.58
11347;BME280;5728;42.722;23.258;2023-03-23T06:40:55;94855.50;;;9.12;93.96
11347;BME280;5728;42.722;23.258;2023-03-23T06:43:24;94851.78;;;9.43;95.88
11347;BME280;5728;42.722;23.258;2023-03-23T06:45:51;94851.16;;;9.98;92.75
11347;BME280;5728;42.722;23.258;2023-03-23T06:48:18;94859.44;;;10.30;90.12
11347;BME280;5728;42.722;23.258;2023-03-23T06:50:45;94861.03;;;10.40;88.31
11347;BME280;5728;42.722;23.258;2023-03-23T06:53:12;94868.94;;;10.31;88.60
11347;BME280;5728;42.722;23.258;2023-03-23T06:55:39;94859.69;;;10.73;87.90
11347;BME280;5728;42.722;23.258;2023-03-23T06:58:08;94862.22;;;10.77;88.11
11347;BME280;5728;42.722;23.258;2023-03-23T07:00:36;94867.69;;;10.59;88.04
11347;BME280;5728;42.722;23.258;2023-03-23T07:03:04;94870.09;;;10.71;89.07
11347;BME280;5728;42.722;23.258;2023-03-23T07:05:32;94859.66;;;10.76;89.13
11347;BME280;5728;42.722;23.258;2023-03-23T07:07:59;94861.56;;;11.20;87.70
11347;BME280;5728;42.722;23.258;2023-03-23T07:10:26;94860.66;;;11.21;85.50
11347;BME280;5728;42.722;23.258;2023-03-23T07:12:53;94864.88;;;11.28;85.58
11347;BME280;5728;42.722;23.258;2023-03-23T07:15:20;94866.78;;;11.67;83.82
11347;BME280;5728;42.722;23.258;2023-03-23T07:17:48;94875.06;;;11.90;84.22
11347;BME280;5728;42.722;23.258;2023-03-23T07:20:15;94860.75;;;12.12;80.91
11347;BME280;5728;42.722;23.258;2023-03-23T07:22:42;94870.09;;;12.23;80.57
11347;BME280;5728;42.722;23.258;2023-03-23T07:25:09;94872.56;;;11.84;81.94
11347;BME280;5728;42.722;23.258;2023-03-23T07:27:36;94868.41;;;12.18;80.79
11347;BME280;5728;42.722;23.258;2023-03-23T07:30:05;94870.16;;;12.20;82.00
11347;BME280;5728;42.722;23.258;2023-03-23T07:32:32;94861.06;;;11.97;80.52
11347;BME280;5728;42.722;23.258;2023-03-23T07:35:01;94864.47;;;12.42;82.01
11347;BME280;5728;42.722;23.258;2023-03-23T07:37:29;94863.66;;;12.39;81.27
11347;BME280;5728;42.722;23.258;2023-03-23T07:39:57;94889.78;;;12.74;79.26
11347;BME280;5728;42.722;23.258;2023-03-23T07:42:24;94872.72;;;13.01;81.61
11347;BME280;5728;42.722;23.258;2023-03-23T07:44:51;94875.19;;;13.42;76.41
11347;BME280;5728;42.722;23.258;2023-03-23T07:47:18;94869.59;;;13.57;76.68
11347;BME280;5728;42.722;23.258;2023-03-23T07:49:45;94863.56;;;13.57;76.12
11347;BME280;5728;42.722;23.258;2023-03-23T07:52:13;94878.03;;;13.68;74.43
11347;BME280;5728;42.722;23.258;2023-03-23T07:54:40;94878.81;;;13.72;77.47
11347;BME280;5728;42.722;23.258;2023-03-23T07:57:06;94875.94;;;14.13;76.31
11347;BME280;5728;42.722;23.258;2023-03-23T07:59:33;94867.31;;;14.11;74.53
11347;BME280;5728;42.722;23.258;2023-03-23T08:02:00;94877.00;;;14.38;77.03
11347;BME280;5728;42.722;23.258;2023-03-23T08:04:27;94871.59;;;14.75;72.03
11347;BME280;5728;42.722;23.258;2023-03-23T08:06:54;94873.38;;;14.44;74.15
11347;BME280;5728;42.722;23.258;2023-03-23T08:09:23;94874.44;;;14.67;71.07
11347;BME280;5728;42.722;23.258;2023-03-23T08:11:49;94890.25;;;14.31;72.59
11347;BME280;5728;42.722;23.258;2023-03-23T08:14:17;94880.19;;;14.49;72.62
11347;BME280;5728;42.722;23.258;2023-03-23T08:16:43;94876.53;;;14.55;70.37
11347;BME280;5728;42.722;23.258;2023-03-23T08:19:11;94888.72;;;14.54;70.34
11347;BME280;5728;42.722;23.258;2023-03-23T08:21:38;94882.06;;;15.03;69.00
11347;BME280;5728;42.722;23.258;2023-03-23T08:24:06;94880.25;;;14.76;73.62
11347;BME280;5728;42.722;23.258;2023-03-23T08:26:34;94870.31;;;15.16;69.57
11347;BME280;5728;42.722;23.258;2023-03-23T08:29:01;94875.00;;;15.60;70.36
11347;BME280;5728;42.722;23.258;2023-03-23T08:31:28;94874.75;;;15.92;69.60
11347;BME280;5728;42.722;23.258;2023-03-23T08:33:55;94873.81;;;16.20;66.41
11347;BME280;5728;42.722;23.258;2023-03-23T08:36:22;94868.81;;;16.37;63.83
11347;BME280;5728;42.722;23.258;2023-03-23T08:38:49;94869.59;;;16.16;65.37
11347;BME280;5728;42.722;23.258;2023-03-23T08:41:17;94860.38;;;16.29;63.34
11347;BME280;5728;42.722;23.258;2023-03-23T08:43:45;94868.19;;;16.55;63.62
11347;BME280;5728;42.722;23.258;2023-03-23T08:46:12;94873.16;;;15.88;60.67
11347;BME280;5728;42.722;23.258;2023-03-23T08:48:39;94868.34;;;16.49;67.17
11347;BME280;5728;42.722;23.258;2023-03-23T08:51:06;94873.75;;;15.96;58.93
11347;BME280;5728;42.722;23.258;2023-03-23T08:53:34;94864.03;;;16.25;58.81
11347;BME280;5728;42.722;23.258;2023-03-23T08:56:06;94862.09;;;16.30;51.82
11347;BME280;5728;42.722;23.258;2023-03-23T08:58:33;94868.06;;;16.58;52.61
11347;BME280;5728;42.722;23.258;2023-03-23T09:01:01;94870.72;;;17.03;51.74
11347;BME280;5728;42.722;23.258;2023-03-23T09:03:28;94877.47;;;17.32;51.16
11347;BME280;5728;42.722;23.258;2023-03-23T09:05:58;94873.47;;;16.29;50.85
11347;BME280;5728;42.722;23.258;2023-03-23T09:08:27;94864.66;;;16.56;52.36
11347;BME280;5728;42.722;23.258;2023-03-23T09:10:54;94870.66;;;17.04;52.80
11347;BME280;5728;42.722;23.258;2023-03-23T09:13:21;94869.53;;;17.33;49.70
11347;BME280;5728;42.722;23.258;2023-03-23T09:15:48;94870.00;;;17.43;52.42
11347;BME280;5728;42.722;23.258;2023-03-23T09:18:17;94870.50;;;17.31;51.72
11347;BME280;5728;42.722;23.258;2023-03-23T09:20:45;94868.31;;;17.63;51.62
11347;BME280;5728;42.722;23.258;2023-03-23T09:23:12;94867.63;;;18.00;49.68
11347;BME280;5728;42.722;23.258;2023-03-23T09:25:40;94859.59;;;18.43;50.67
11347;BME280;5728;42.722;23.258;2023-03-23T09:28:07;94850.03;;;18.42;51.33
11347;BME280;5728;42.722;23.258;2023-03-23T09:30:35;94852.81;;;18.97;47.99
11347;BME280;5728;42.722;23.258;2023-03-23T09:33:03;94856.34;;;18.96;46.55
11347;BME280;5728;42.722;23.258;2023-03-23T09:35:32;94847.63;;;18.77;46.64
11347;BME280;5728;42.722;23.258;2023-03-23T09:38:01;94845.25;;;18.52;49.34
11347;BME280;5728;42.722;23.258;2023-03-23T09:40:31;94855.03;;;18.48;47.09
11347;BME280;5728;42.722;23.258;2023-03-23T09:43:13;94844.56;;;18.67;44.72
11347;BME280;5728;42.722;23.258;2023-03-23T09:45:53;94847.25;;;18.66;46.65
11347;BME280;5728;42.722;23.258;2023-03-23T09:48:40;94844.19;;;19.49;46.90
11347;BME280;5728;42.722;23.258;2023-03-23T09:51:20;94848.53;;;19.50;46.59
11347;BME280;5728;42.722;23.258;2023-03-23T09:53:51;94847.19;;;19.23;45.08
11347;BME280;5728;42.722;23.258;2023-03-23T09:56:20;94846.66;;;19.34;47.27
11347;BME280;5728;42.722;23.258;2023-03-23T09:58:51;94834.56;;;19.13;44.97
11347;BME280;5728;42.722;23.258;2023-03-23T10:01:23;94837.28;;;19.47;47.08
11347;BME280;5728;42.722;23.258;2023-03-23T10:03:58;94834.78;;;19.08;46.00
11347;BME280;5728;42.722;23.258;2023-03-23T10:06:28;94832.91;;;18.91;45.39
11347;BME280;5728;42.722;23.258;2023-03-23T10:08:57;94826.78;;;18.54;46.40
11347;BME280;5728;42.722;23.258;2023-03-23T10:11:35;94830.28;;;18.34;47.73
11347;BME280;5728;42.722;23.258;2023-03-23T10:14:30;94836.75;;;19.03;47.13
11347;BME280;5728;42.722;23.258;2023-03-23T10:17:04;94828.34;;;19.13;44.57
11347;BME280;5728;42.722;23.258;2023-03-23T10:19:39;94828.47;;;19.48;46.69
11347;BME280;5728;42.722;23.258;2023-03-23T10:22:11;94833.66;;;17.77;46.97
11347;BME280;5728;42.722;23.258;2023-03-23T10:24:43;94820.69;;;19.09;46.78
11347;BME280;5728;42.722;23.258;2023-03-23T10:27:19;94838.81;;;18.96;43.90
11347;BME280;5728;42.722;23.258;2023-03-23T10:29:53;94828.78;;;19.23;45.29
11347;BME280;5728;42.722;23.258;2023-03-23T10:32:39;94827.22;;;19.38;45.82
11347;BME280;5728;42.722;23.258;2023-03-23T10:35:11;94837.63;;;18.85;44.11
11347;BME280;5728;42.722;23.258;2023-03-23T10:37:44;94826.53;;;19.16;44.90
11347;BME280;5728;42.722;23.258;2023-03-23T10:40:16;94825.72;;;19.68;49.29
11347;BME280;5728;42.722;23.258;2023-03-23T10:42:43;94830.59;;;19.93;42.92
11347;BME280;5728;42.722;23.258;2023-03-23T10:45:16;94817.25;;;20.47;42.47
11347;BME280;5728;42.722;23.258;2023-03-23T10:50:31;94815.06;;;20.55;42.04
11347;BME280;5728;42.722;23.258;2023-03-23T10:53:01;94803.81;;;20.36;41.40
11347;BME280;5728;42.722;23.258;2023-03-23T10:55:38;94815.47;;;20.96;39.99
11347;BME280;5728;42.722;23.258;2023-03-23T10:58:06;94816.47;;;20.93;40.16
11347;BME280;5728;42.722;23.258;2023-03-23T11:00:41;94805.66;;;20.17;41.63
11347;BME280;5728;42.722;23.258;2023-03-23T11:03:24;94807.00;;;20.25;41.01
11347;BME280;5728;42.722;23.258;2023-03-23T11:05:56;94808.41;;;20.48;40.70
11347;BME280;5728;42.722;23.258;2023-03-23T11:08:26;94805.22;;;20.74;40.46
11347;BME280;5728;42.722;23.258;2023-03-23T11:10:55;94800.81;;;21.53;38.10
11347;BME280;5728;42.722;23.258;2023-03-23T11:13:28;94800.72;;;20.28;40.44
11347;BME280;5728;42.722;23.258;2023-03-23T11:15:56;94806.09;;;20.42;40.63
11347;BME280;5728;42.722;23.258;2023-03-23T11:18:25;94805.81;;;20.79;40.52
11347;BME280;5728;42.722;23.258;2023-03-23T11:20:55;94791.00;;;21.10;38.47
11347;BME280;5728;42.722;23.258;2023-03-23T11:23:29;94787.38;;;20.79;39.94
11347;BME280;5728;42.722;23.258;2023-03-23T11:26:08;94782.63;;;21.78;38.89
11347;BME280;5728;42.722;23.258;2023-03-23T11:28:41;94776.31;;;22.10;38.73
11347;BME280;5728;42.722;23.258;2023-03-23T11:31:09;94771.66;;;21.86;37.64
11347;BME280;5728;42.722;23.258;2023-03-23T11:33:50;94778.72;;;21.85;37.99
11347;BME280;5728;42.722;23.258;2023-03-23T11:36:18;94771.72;;;22.14;37.18
11347;BME280;5728;42.722;23.258;2023-03-23T11:38:46;94768.31;;;22.12;36.14
11347;BME280;5728;42.722;23.258;2023-03-23T11:41:18;94774.69;;;22.38;36.09
11347;BME280;5728;42.722;23.258;2023-03-23T11:43:46;94759.75;;;22.51;36.72
11347;BME280;5728;42.722;23.258;2023-03-23T11:46:22;94755.72;;;23.14;35.33
11347;BME280;5728;42.722;23.258;2023-03-23T11:48:57;94758.88;;;22.08;37.78
11347;BME280;5728;42.722;23.258;2023-03-23T11:51:30;94753.25;;;22.42;36.55
11347;BME280;5728;42.722;23.258;2023-03-23T11:54:04;94754.88;;;22.73;35.26
11347;BME280;5728;42.722;23.258;2023-03-23T11:56:34;94750.16;;;22.64;35.16
11347;BME280;5728;42.722;23.258;2023-03-23T11:59:02;94756.78;;;20.92;37.81
11347;BME280;5728;42.722;23.258;2023-03-23T12:01:47;94747.19;;;20.27;39.86
11347;BME280;5728;42.722;23.258;2023-03-23T12:07:46;94750.97;;;22.78;36.06
11347;BME280;5728;42.722;23.258;2023-03-23T12:10:29;94738.97;;;22.59;34.86
11347;BME280;5728;42.722;23.258;2023-03-23T12:13:15;94741.16;;;20.74;37.68
11347;BME280;5728;42.722;23.258;2023-03-23T12:15:51;94733.06;;;21.53;39.12
11347;BME280;5728;42.722;23.258;2023-03-23T12:18:24;94736.25;;;22.74;36.07
11347;BME280;5728;42.722;23.258;2023-03-23T12:21:04;94732.34;;;22.94;34.81
11347;BME280;5728;42.722;23.258;2023-03-23T12:23:38;94725.09;;;21.99;35.53
11347;BME280;5728;42.722;23.258;2023-03-23T12:26:17;94743.00;;;20.56;38.91
11347;BME280;5728;42.722;23.258;2023-03-23T12:29:14;94730.41;;;21.83;37.82
11347;BME280;5728;42.722;23.258;2023-03-23T12:31:49;94726.31;;;22.92;36.97
11347;BME280;5728;42.722;23.258;2023-03-23T12:34:27;94720.16;;;23.06;34.96
11347;BME280;5728;42.722;23.258;2023-03-23T12:37:09;94729.28;;;23.68;33.77
11347;BME280;5728;42.722;23.258;2023-03-23T12:39:55;94718.03;;;23.64;33.79
11347;BME280;5728;42.722;23.258;2023-03-23T12:42:31;94722.13;;;23.95;32.92
11347;BME280;5728;42.722;23.258;2023-03-23T12:45:07;94711.03;;;24.15;32.91
11347;BME280;5728;42.722;23.258;2023-03-23T12:47:41;94709.88;;;23.55;33.39
11347;BME280;5728;42.722;23.258;2023-03-23T12:50:15;94708.78;;;23.18;33.68
11347;BME280;5728;42.722;23.258;2023-03-23T12:52:48;94717.78;;;22.32;36.31
11347;BME280;5728;42.722;23.258;2023-03-23T12:55:23;94708.75;;;22.91;34.36
11347;BME280;5728;42.722;23.258;2023-03-23T12:57:54;94701.59;;;22.79;34.60
11347;BME280;5728;42.722;23.258;2023-03-23T13:00:28;94708.41;;;22.83;34.65
11347;BME280;5728;42.722;23.258;2023-03-23T13:02:59;94703.13;;;22.41;34.22
11347;BME280;5728;42.722;23.258;2023-03-23T13:05:34;94709.72;;;22.90;34.58
11347;BME280;5728;42.722;23.258;2023-03-23T13:08:05;94694.81;;;22.75;33.63
11347;BME280;5728;42.722;23.258;2023-03-23T13:10:36;94705.97;;;22.38;34.86
11347;BME280;5728;42.722;23.258;2023-03-23T13:13:12;94709.78;;;21.46;36.13
11347;BME280;5728;42.722;23.258;2023-03-23T13:15:48;94699.25;;;22.60;34.89
11347;BME280;5728;42.722;23.258;2023-03-23T13:18:20;94691.44;;;23.00;33.40
11347;BME280;5728;42.722;23.258;2023-03-23T13:20:59;94687.78;;;23.81;32.36
11347;BME280;5728;42.722;23.258;2023-03-23T13:23:31;94690.81;;;24.39;33.39
11347;BME280;5728;42.722;23.258;2023-03-23T13:26:03;94687.16;;;24.40;33.03